Terminal Aerodrome Forecast
Issued by NWS Portland, OR

Home | Current Version | Previous Version | Text Only | Print | Product List | Glossary On
Versions: 1 2 3 4 5 6 7 8 9 10 11 12 13 14 15 16 17
000
FTUS46 KPQR 231720
TAFSLE
TAF
KSLE 231720Z 2318/2418 15007KT P6SM SCT050 BKN150
     FM240000 17007KT P6SM -RA OVC050
     FM240400 17007KT 6SM RA BR SCT025 OVC040
     FM241100 18007KT P6SM -SHRA SCT025 BKN040=

USA.gov is the U.S. government's official web portal to all federal, state and local government web resources and services.